Time;durP1;ratioP1;P1;durP2;ratioP2;P2;SDS_P1;SDS_P2;PMS_P1;PMS_P2;Temp;Humidity;BMP_temperature;BMP_pressure;BME280_temperature;BME280_humidity;BME280_pressure;Samples;Min_cycle;Max_cycle;Signal;HPM_P1;HPM_P2
2021/10/27 00:02:20;;;;;;;19.63;7.93;;;;;;;3.49;55.67;99787.75;4977516;28;20050;-80
2021/10/27 00:04:46;;;;;;;19.40;7.53;;;;;;;3.48;56.16;99795.69;4976653;28;20496;-79
2021/10/27 00:07:15;;;;;;;18.00;7.30;;;;;;;3.49;56.26;99790.38;4977323;28;20042;-77
2021/10/27 00:09:40;;;;;;;16.90;6.97;;;;;;;3.49;56.00;99782.53;4977794;28;20084;-76
2021/10/27 00:12:07;;;;;;;18.38;7.68;;;;;;;3.46;56.03;99789.66;4961411;28;20492;-79
2021/10/27 00:14:34;;;;;;;19.52;8.27;;;;;;;3.42;56.24;99785.50;4976749;28;20046;-79
2021/10/27 00:17:00;;;;;;;18.88;8.15;;;;;;;3.39;56.25;99781.25;4946143;28;20515;-77
2021/10/27 00:19:26;;;;;;;18.35;8.32;;;;;;;3.40;56.36;99772.47;4971857;28;20045;-82
2021/10/27 00:21:52;;;;;;;20.83;8.05;;;;;;;3.39;56.06;99782.09;4976780;28;20041;-80
2021/10/27 00:24:18;;;;;;;22.30;8.20;;;;;;;3.32;56.74;99775.44;4975394;28;20543;-76
2021/10/27 00:26:44;;;;;;;20.27;7.97;;;;;;;3.32;56.52;99767.59;4955547;29;20051;-76
2021/10/27 00:29:10;;;;;;;14.95;8.60;;;;;;;3.31;56.45;99776.34;4976852;28;20042;-78
2021/10/27 00:31:36;;;;;;;21.52;7.78;;;;;;;3.29;56.70;99778.22;4977848;28;20039;-76
2021/10/27 00:34:01;;;;;;;19.33;8.57;;;;;;;3.29;56.92;99772.13;4979196;28;20060;-78
2021/10/27 00:36:27;;;;;;;18.05;7.45;;;;;;;3.27;56.65;99776.59;4961056;28;20038;-81
2021/10/27 00:38:53;;;;;;;20.33;7.70;;;;;;;3.24;57.07;99774.97;4977624;28;20057;-81
2021/10/27 00:41:19;;;;;;;22.92;8.77;;;;;;;3.23;57.04;99766.25;4977641;28;20046;-79
2021/10/27 00:43:45;;;;;;;21.90;8.00;;;;;;;3.22;57.20;99761.94;4978981;28;20133;-77
2021/10/27 00:46:22;;;;;;;22.38;8.85;;;;;;;3.30;56.74;99769.47;4960644;28;20074;-77
2021/10/27 00:48:49;;;;;;;20.50;8.05;;;;;;;3.27;56.89;99760.91;4980956;28;20051;-79
2021/10/27 00:51:15;;;;;;;15.82;7.82;;;;;;;3.28;57.20;99755.59;4963235;28;20519;-76
2021/10/27 00:53:42;;;;;;;17.85;7.75;;;;;;;3.26;56.84;99754.81;4971885;28;20057;-76
2021/10/27 00:56:09;;;;;;;16.55;8.05;;;;;;;3.23;57.10;99749.75;4980753;28;20050;-78
2021/10/27 00:58:36;;;;;;;17.30;8.40;;;;;;;3.24;56.85;99746.22;4980874;28;20051;-76
2021/10/27 01:01:03;;;;;;;19.40;8.68;;;;;;;3.23;57.59;99749.75;4981076;28;20038;-81
2021/10/27 01:03:29;;;;;;;20.23;8.82;;;;;;;3.22;56.92;99745.44;4973984;28;20101;-76
2021/10/27 01:05:55;;;;;;;18.50;8.70;;;;;;;3.21;57.65;99741.13;4980658;28;20330;-76
2021/10/27 01:08:21;;;;;;;18.02;7.75;;;;;;;3.21;57.47;99741.94;4981158;28;20043;-80
2021/10/27 01:10:47;;;;;;;21.27;8.30;;;;;;;3.21;57.44;99741.13;4975637;28;20129;-77
2021/10/27 01:13:14;;;;;;;24.02;9.35;;;;;;;3.15;57.36;99723.94;4974452;28;20542;-79
2021/10/27 01:15:41;;;;;;;19.63;8.95;;;;;;;3.16;57.75;99738.69;4956916;28;20559;-81
2021/10/27 01:18:08;;;;;;;20.85;8.43;;;;;;;3.17;57.67;99734.34;4974976;28;20057;-77
2021/10/27 01:20:34;;;;;;;19.77;8.82;;;;;;;3.13;57.59;99731.00;4976061;28;20765;-78
2021/10/27 01:23:01;;;;;;;17.83;8.45;;;;;;;3.12;57.79;99731.94;4973870;28;20047;-78
2021/10/27 01:25:27;;;;;;;15.23;8.55;;;;;;;3.11;57.67;99729.41;4974712;28;20126;-79
2021/10/27 01:27:53;;;;;;;24.08;8.65;;;;;;;3.08;58.17;99728.59;4974114;28;20479;-77
2021/10/27 01:30:22;;;;;;;21.85;8.95;;;;;;;3.05;57.61;99720.91;4974747;28;20121;-77
2021/10/27 01:32:50;;;;;;;16.40;8.02;;;;;;;3.02;58.20;99723.66;4973404;28;20050;-76
2021/10/27 01:35:16;;;;;;;19.92;7.35;;;;;;;3.02;58.62;99725.44;4972848;28;20055;-76
2021/10/27 01:37:43;;;;;;;18.48;7.78;;;;;;;3.00;58.47;99722.03;4974865;28;20047;-77
2021/10/27 01:40:14;;;;;;;20.58;8.85;;;;;;;2.96;58.36;99720.47;4974167;28;20051;-77
2021/10/27 01:42:41;;;;;;;18.73;8.55;;;;;;;2.95;58.85;99716.16;4956517;28;20528;-78
2021/10/27 01:45:07;;;;;;;15.77;7.53;;;;;;;2.92;58.44;99714.53;4974113;28;20043;-78
2021/10/27 01:47:36;;;;;;;17.48;7.85;;;;;;;2.87;58.90;99714.75;4973269;28;20110;-77
2021/10/27 01:50:02;;;;;;;18.10;7.65;;;;;;;2.88;58.73;99723.44;4958421;28;20081;-80
2021/10/27 01:52:28;;;;;;;18.40;7.25;;;;;;;2.84;58.83;99711.41;4974218;28;20108;-78
2021/10/27 01:54:54;;;;;;;19.35;7.25;;;;;;;2.84;59.25;99714.03;4974141;28;20042;-78
2021/10/27 01:57:20;;;;;;;21.17;7.70;;;;;;;2.79;59.09;99713.38;4973593;28;20376;-74
2021/10/27 01:59:46;;;;;;;17.58;7.55;;;;;;;2.80;59.10;99700.25;4955445;28;20035;-78
2021/10/27 02:02:12;;;;;;;17.77;7.90;;;;;;;2.78;59.86;99696.00;4952484;28;20058;-80
2021/10/27 02:04:38;;;;;;;17.60;8.27;;;;;;;2.75;59.54;99682.19;4973648;28;20091;-76
2021/10/27 02:07:04;;;;;;;18.30;7.32;;;;;;;2.78;59.49;99696.00;4972975;28;20034;-79
2021/10/27 02:09:31;;;;;;;16.55;7.50;;;;;;;2.78;59.54;99694.28;4973652;28;20031;-78
2021/10/27 02:11:57;;;;;;;16.40;7.55;;;;;;;2.72;59.34;99692.75;4974658;28;20049;-79
2021/10/27 02:14:28;;;;;;;18.90;7.57;;;;;;;2.72;59.09;99687.53;4966345;28;20040;-78
2021/10/27 02:16:54;;;;;;;17.50;7.93;;;;;;;2.70;59.55;99684.13;4957784;28;20126;-79
2021/10/27 02:19:20;;;;;;;21.20;7.25;;;;;;;2.71;59.49;99685.00;4975003;28;20488;-81
2021/10/27 02:21:46;;;;;;;17.10;7.25;;;;;;;2.68;59.79;99686.00;4958728;28;20051;-81
2021/10/27 02:24:11;;;;;;;19.15;8.02;;;;;;;2.67;59.76;99683.47;4941112;28;20125;-81
2021/10/27 02:26:37;;;;;;;18.25;7.70;;;;;;;2.67;60.09;99683.47;4978348;28;20038;-79
2021/10/27 02:29:04;;;;;;;18.33;7.57;;;;;;;2.67;60.51;99675.63;4966812;28;20508;-82
2021/10/27 02:31:30;;;;;;;20.08;7.93;;;;;;;2.67;60.21;99671.22;4968287;28;20066;-81
2021/10/27 02:33:56;;;;;;;20.98;8.90;;;;;;;2.70;59.73;99668.47;4972896;28;20113;-82
2021/10/27 02:36:22;;;;;;;19.85;8.07;;;;;;;2.67;60.06;99668.63;4956932;28;20047;-81
2021/10/27 02:38:47;;;;;;;23.05;7.38;;;;;;;2.64;60.69;99663.56;4972557;28;20046;-81
2021/10/27 02:41:14;;;;;;;21.48;8.50;;;;;;;2.67;60.41;99663.41;4956708;28;20078;-77
2021/10/27 02:43:40;;;;;;;15.23;7.25;;;;;;;2.66;60.07;99655.66;4974152;28;20542;-81
2021/10/27 02:46:09;;;;;;;17.10;7.65;;;;;;;2.65;60.36;99659.16;4955379;28;20047;-80
2021/10/27 02:48:35;;;;;;;19.40;7.75;;;;;;;2.63;60.08;99656.63;4972559;28;20039;-78
2021/10/27 02:51:01;;;;;;;14.63;7.40;;;;;;;2.60;60.93;99664.59;4973126;28;20137;-78
2021/10/27 02:53:28;;;;;;;18.97;7.90;;;;;;;2.59;61.16;99649.84;4973040;28;20574;-79
2021/10/27 02:55:54;;;;;;;18.02;7.85;;;;;;;2.58;61.20;99642.94;4975692;28;20286;-80
2021/10/27 02:58:20;;;;;;;18.50;8.40;;;;;;;2.55;60.81;99650.88;4977125;28;20133;-79
2021/10/27 03:00:46;;;;;;;18.10;8.05;;;;;;;2.50;61.20;99635.41;4973796;28;20559;-82
2021/10/27 03:03:11;;;;;;;31.08;10.77;;;;;;;2.45;61.33;99641.78;4955754;28;20077;-79
2021/10/27 03:05:37;;;;;;;17.67;7.75;;;;;;;2.43;61.91;99645.31;4953252;28;20102;-77
2021/10/27 03:08:03;;;;;;;18.60;8.48;;;;;;;2.39;61.24;99643.75;4952044;28;20531;-79
2021/10/27 03:10:29;;;;;;;18.75;8.48;;;;;;;2.35;62.04;99638.72;4972532;28;20042;-77
2021/10/27 03:12:55;;;;;;;19.77;7.80;;;;;;;2.33;61.62;99628.34;4971860;28;20042;-80
2021/10/27 03:15:21;;;;;;;25.42;9.13;;;;;;;2.32;62.36;99617.97;4954289;28;20122;-78
2021/10/27 03:17:47;;;;;;;19.40;7.63;;;;;;;2.30;61.90;99625.88;4957658;28;20407;-81
2021/10/27 03:20:13;;;;;;;16.10;8.15;;;;;;;2.29;62.13;99618.94;4955876;28;20043;-78
2021/10/27 03:22:39;;;;;;;28.00;8.25;;;;;;;2.28;61.79;99617.28;4974163;28;20050;-77
2021/10/27 03:25:05;;;;;;;20.92;8.18;;;;;;;2.26;62.07;99614.72;4956273;28;20047;-79
2021/10/27 03:27:31;;;;;;;20.92;8.55;;;;;;;2.24;62.33;99613.09;4972929;28;20050;-78
2021/10/27 03:29:57;;;;;;;19.38;8.05;;;;;;;2.24;62.17;99615.69;4972824;28;20098;-81
2021/10/27 03:32:23;;;;;;;19.15;8.77;;;;;;;2.17;62.52;99602.09;4956003;28;20043;-79
2021/10/27 03:34:50;;;;;;;27.42;10.50;;;;;;;2.16;63.00;99600.38;4972493;28;20065;-80
2021/10/27 03:37:16;;;;;;;19.30;9.10;;;;;;;2.18;62.72;99609.00;4972953;28;20047;-76
2021/10/27 03:39:42;;;;;;;20.80;8.40;;;;;;;2.15;62.96;99601.28;4923603;28;20129;-78
2021/10/27 03:42:07;;;;;;;22.77;8.70;;;;;;;2.11;62.60;99599.75;4973203;28;20134;-82
2021/10/27 03:44:33;;;;;;;20.05;8.55;;;;;;;2.13;62.90;99594.44;4956239;28;20042;-82
2021/10/27 03:46:59;;;;;;;23.35;9.35;;;;;;;2.09;62.93;99597.22;4955557;28;20046;-79
2021/10/27 03:49:25;;;;;;;21.23;8.45;;;;;;;2.10;62.91;99591.03;4973757;28;20538;-79
2021/10/27 03:51:52;;;;;;;21.33;8.73;;;;;;;2.08;62.86;99589.41;4927775;29;20035;-81
2021/10/27 03:54:18;;;;;;;21.65;9.80;;;;;;;2.10;63.04;99590.22;4920640;29;20043;-81
2021/10/27 03:56:44;;;;;;;19.65;8.48;;;;;;;2.08;63.28;99598.13;4936754;29;20489;-84
2021/10/27 03:59:10;;;;;;;23.77;8.75;;;;;;;2.07;63.49;99583.38;4943145;28;20093;-78
2021/10/27 04:01:36;;;;;;;24.00;8.65;;;;;;;2.06;63.46;99588.66;4942229;28;20074;-83
2021/10/27 04:04:02;;;;;;;24.20;9.10;;;;;;;2.07;63.49;99580.75;4940127;28;20039;-82
2021/10/27 04:06:28;;;;;;;17.52;8.75;;;;;;;2.05;63.22;99582.56;4955383;28;20049;-79
2021/10/27 04:08:54;;;;;;;22.65;8.95;;;;;;;2.07;63.79;99580.75;4956720;28;20051;-82
2021/10/27 04:11:20;;;;;;;23.60;9.60;;;;;;;2.02;63.35;99580.13;4940642;28;20067;-80
2021/10/27 04:13:46;;;;;;;28.02;9.45;;;;;;;2.05;63.45;99577.38;4974519;28;20049;-80
2021/10/27 04:16:12;;;;;;;18.60;8.23;;;;;;;2.04;63.31;99574.81;4976838;28;20031;-83
2021/10/27 04:18:38;;;;;;;26.25;9.75;;;;;;;1.99;64.16;99571.56;4959811;28;20053;-84
2021/10/27 04:21:03;;;;;;;19.75;8.48;;;;;;;2.00;64.18;99574.09;4960551;28;20085;-82
2021/10/27 04:23:29;;;;;;;28.33;9.23;;;;;;;2.02;64.39;99569.69;4959532;28;20065;-79
2021/10/27 04:25:55;;;;;;;20.80;8.45;;;;;;;2.05;64.17;99564.31;4976557;28;20047;-78
2021/10/27 04:28:21;;;;;;;23.40;9.07;;;;;;;2.05;63.44;99566.09;4977946;28;20054;-79
2021/10/27 04:30:50;;;;;;;18.38;8.70;;;;;;;2.08;63.96;99572.03;4979164;28;20039;-80
2021/10/27 04:33:17;;;;;;;25.30;9.45;;;;;;;2.09;63.40;99563.28;4945298;28;20054;-80
2021/10/27 04:35:43;;;;;;;29.33;9.35;;;;;;;2.14;64.14;99559.63;4975497;28;20047;-78
2021/10/27 04:38:09;;;;;;;35.78;12.48;;;;;;;2.22;63.91;99563.59;4975775;28;20204;-80
2021/10/27 04:40:35;;;;;;;19.80;8.55;;;;;;;2.28;63.30;99567.69;4945207;28;20046;-80
2021/10/27 04:43:01;;;;;;;22.00;8.85;;;;;;;2.30;63.18;99568.47;4939902;29;20049;-80
2021/10/27 04:45:28;;;;;;;22.63;8.43;;;;;;;2.33;62.82;99563.13;4974084;28;20673;-80
2021/10/27 04:47:54;;;;;;;23.13;8.80;;;;;;;2.43;62.81;99563.56;4977184;28;20050;-80
2021/10/27 04:50:20;;;;;;;27.73;9.35;;;;;;;2.49;62.85;99563.25;4958503;28;20134;-80
2021/10/27 04:52:46;;;;;;;20.92;9.10;;;;;;;2.55;62.81;99569.97;4940050;29;20047;-79
2021/10/27 04:55:14;;;;;;;29.77;9.35;;;;;;;2.57;62.62;99568.97;4957856;29;20071;-79
2021/10/27 04:57:40;;;;;;;24.90;9.95;;;;;;;2.59;62.56;99561.94;4907555;29;20082;-80
2021/10/27 05:00:06;;;;;;;23.33;9.43;;;;;;;2.65;62.18;99568.63;4939628;28;20043;-80
2021/10/27 05:02:36;;;;;;;24.40;9.25;;;;;;;2.72;62.32;99570.03;4938964;29;20043;-81
2021/10/27 05:05:01;;;;;;;21.75;9.07;;;;;;;2.82;62.00;99567.84;4940763;29;20350;-79
2021/10/27 05:07:29;;;;;;;26.15;9.15;;;;;;;2.85;61.56;99561.63;4926244;29;20051;-78
2021/10/27 05:09:56;;;;;;;23.98;10.35;;;;;;;2.92;61.66;99568.25;4961540;29;20054;-76
2021/10/27 05:12:23;;;;;;;24.38;9.35;;;;;;;3.02;61.51;99569.50;4924642;29;20054;-80
2021/10/27 05:14:49;;;;;;;21.27;9.40;;;;;;;3.11;60.99;99564.78;4957359;29;20043;-80
2021/10/27 05:17:15;;;;;;;24.15;8.57;;;;;;;3.06;61.06;99560.59;4958783;29;20513;-79
2021/10/27 05:19:45;;;;;;;24.58;8.80;;;;;;;3.16;60.56;99554.94;4927412;29;20047;-81
2021/10/27 05:22:14;;;;;;;25.10;9.27;;;;;;;3.23;60.53;99551.94;4911860;29;20109;-84
2021/10/27 05:24:43;;;;;;;29.35;8.45;;;;;;;3.24;60.74;99548.41;4925486;29;20194;-84
2021/10/27 05:27:10;;;;;;;26.15;10.07;;;;;;;3.22;60.67;99559.88;4908856;29;20047;-84
2021/10/27 05:29:36;;;;;;;22.23;10.05;;;;;;;3.28;60.46;99562.19;4909597;29;20040;-81
2021/10/27 05:32:06;;;;;;;19.92;9.52;;;;;;;3.35;60.38;99560.09;4941077;29;20050;-83
2021/10/27 05:34:33;;;;;;;25.27;9.45;;;;;;;3.40;60.38;99552.88;4925517;29;20059;-79
2021/10/27 05:36:59;;;;;;;26.40;9.32;;;;;;;3.45;60.29;99550.91;4908138;29;20432;-84
2021/10/27 05:39:25;;;;;;;22.40;8.88;;;;;;;3.50;60.12;99550.66;4908852;29;20090;-81
2021/10/27 05:41:51;;;;;;;30.60;9.63;;;;;;;3.57;59.62;99544.22;4908879;29;20142;-80
2021/10/27 05:44:18;;;;;;;37.22;15.68;;;;;;;3.64;59.63;99556.06;4938761;29;20066;-81
2021/10/27 05:46:45;;;;;;;29.20;11.27;;;;;;;3.69;59.44;99548.00;4924883;29;20149;-85
2021/10/27 05:51:48;;;;;;;25.37;10.60;;;;;;;3.78;59.30;99557.13;4940763;29;20047;-86
2021/10/27 05:56:59;;;;;;;29.40;9.40;;;;;;;3.88;58.89;99547.88;4924240;29;20923;-79
2021/10/27 05:59:25;;;;;;;20.15;8.82;;;;;;;3.95;58.74;99546.66;4939591;29;20149;-83
2021/10/27 06:01:51;;;;;;;26.95;10.85;;;;;;;3.99;58.86;99542.09;4923317;29;20057;-84
2021/10/27 06:04:17;;;;;;;23.50;9.93;;;;;;;3.99;58.60;99540.31;4909023;29;20065;-85
2021/10/27 06:06:47;;;;;;;26.50;9.27;;;;;;;4.14;58.04;99537.84;4909261;29;20468;-80
2021/10/27 06:09:16;;;;;;;26.33;12.13;;;;;;;4.08;58.64;99539.00;4923194;29;20043;-86
2021/10/27 06:11:43;;;;;;;22.08;8.48;;;;;;;4.13;58.11;99538.75;4907305;29;20128;-82
2021/10/27 06:14:10;;;;;;;20.92;9.07;;;;;;;4.21;58.16;99547.03;4922649;29;20047;-79
2021/10/27 06:16:36;;;;;;;28.73;10.07;;;;;;;4.28;58.06;99540.56;4954937;29;20083;-83
2021/10/27 06:19:02;;;;;;;30.23;10.32;;;;;;;4.26;57.88;99542.44;4938948;29;20519;-78
2021/10/27 06:21:28;;;;;;;28.58;11.05;;;;;;;4.42;57.62;99536.34;4937756;29;20097;-81
2021/10/27 06:23:54;;;;;;;23.33;9.68;;;;;;;4.45;57.18;99528.31;4908690;29;20047;-81
2021/10/27 06:26:21;;;;;;;21.58;8.63;;;;;;;4.38;57.17;99536.50;4908243;29;20098;-83
2021/10/27 06:29:03;;;;;;;24.35;10.40;;;;;;;4.38;57.59;99536.50;4909133;29;20150;-80
2021/10/27 06:31:34;;;;;;;22.05;10.30;;;;;;;4.43;57.41;99533.66;4922772;29;20047;-84
2021/10/27 06:34:21;;;;;;;30.40;10.77;;;;;;;4.47;57.22;99534.34;4955915;28;20118;-85
2021/10/27 06:47:51;;;;;;;26.80;10.25;;;;;;;4.68;56.25;99501.72;4939426;29;20039;-80
2021/10/27 06:50:17;;;;;;;24.20;9.35;;;;;;;4.73;56.73;99503.25;4910361;29;20051;-83
2021/10/27 06:52:43;;;;;;;25.20;9.85;;;;;;;4.77;56.48;99499.53;4940704;29;20129;-84
2021/10/27 06:55:09;;;;;;;49.33;16.90;;;;;;;4.89;56.76;99498.00;4907780;29;20043;-79
2021/10/27 06:57:35;;;;;;;24.48;10.27;;;;;;;4.86;56.29;99504.25;4900105;29;20091;-80
2021/10/27 07:00:15;;;;;;;28.85;9.65;;;;;;;4.93;56.35;99496.88;4900167;29;20665;-86
2021/10/27 07:03:04;;;;;;;27.15;10.02;;;;;;;4.99;56.29;99500.00;4872288;29;20089;-80
2021/10/27 07:16:12;;;;;;;29.50;11.65;;;;;;;5.11;56.29;99498.47;4884542;29;20044;-80
2021/10/27 07:18:39;;;;;;;25.73;11.00;;;;;;;5.23;55.74;99491.66;4884249;29;20100;-81
2021/10/27 07:21:05;;;;;;;30.08;10.52;;;;;;;5.33;55.67;99492.81;4884911;29;20040;-81
2021/10/27 07:23:31;;;;;;;27.80;11.27;;;;;;;5.30;55.70;99482.50;4886116;29;20062;-84
2021/10/27 07:25:59;;;;;;;22.80;10.55;;;;;;;5.37;55.16;99466.41;4870722;29;20072;-82
2021/10/27 07:28:26;;;;;;;22.90;10.77;;;;;;;5.37;54.87;99477.75;4883787;29;20118;-80
2021/10/27 07:30:54;;;;;;;28.30;11.95;;;;;;;5.44;55.29;99478.22;4905160;29;20532;-84
2021/10/27 07:33:21;;;;;;;33.13;12.38;;;;;;;5.39;55.04;99468.00;4924082;29;20058;-83
2021/10/27 07:35:55;;;;;;;37.17;15.02;;;;;;;5.56;55.10;99467.00;4906767;29;20067;-86
2021/10/27 07:41:08;;;;;;;51.45;17.75;;;;;;;5.61;54.96;99451.84;4908179;29;20056;-82
2021/10/27 07:43:35;;;;;;;33.15;15.20;;;;;;;5.67;54.75;99448.84;4906407;29;20095;-81
2021/10/27 07:46:01;;;;;;;43.33;13.63;;;;;;;5.69;54.88;99445.28;4904895;29;20398;-83
2021/10/27 07:48:28;;;;;;;73.85;25.60;;;;;;;5.67;55.37;99442.78;4934380;29;20048;-82
2021/10/27 07:50:57;;;;;;;37.88;15.68;;;;;;;5.61;55.25;99454.47;4921042;29;20062;-83
2021/10/27 07:53:23;;;;;;;42.53;15.77;;;;;;;5.58;54.69;99446.78;4895617;29;20060;-80
2021/10/27 07:55:51;;;;;;;33.17;13.80;;;;;;;5.61;54.88;99454.47;4894645;29;20105;-84
2021/10/27 07:58:26;;;;;;;42.38;15.75;;;;;;;5.71;55.31;99453.88;4921790;29;20137;-84
2021/10/27 08:00:58;;;;;;;36.92;14.38;;;;;;;5.79;54.49;99454.28;4891215;29;20584;-85
2021/10/27 08:03:29;;;;;;;39.95;15.55;;;;;;;5.71;55.16;99448.66;4906958;29;20043;-82
2021/10/27 08:06:03;;;;;;;63.03;21.73;;;;;;;5.81;55.59;99448.00;4879723;29;20048;-82
2021/10/27 08:08:29;;;;;;;66.20;24.20;;;;;;;5.87;54.86;99443.31;4919341;29;20147;-80
2021/10/27 08:10:55;;;;;;;46.75;19.48;;;;;;;5.99;54.34;99440.81;4887800;29;20048;-80
2021/10/27 08:13:21;;;;;;;58.25;24.48;;;;;;;6.13;54.36;99439.97;4874175;29;20048;-82
2021/10/27 08:15:47;;;;;;;42.50;14.32;;;;;;;6.18;53.74;99430.94;4904542;29;20052;-79
2021/10/27 08:18:16;;;;;;;24.77;12.30;;;;;;;6.19;53.81;99433.47;4920230;29;20039;-79
2021/10/27 08:20:44;;;;;;;29.98;11.10;;;;;;;6.13;54.09;99423.34;4878025;29;20044;-81
2021/10/27 08:23:15;;;;;;;33.58;12.50;;;;;;;6.23;53.53;99424.47;4892299;29;20044;-89
2021/10/27 08:25:48;;;;;;;32.78;12.10;;;;;;;6.28;53.43;99409.25;4870569;29;20125;-85
2021/10/27 08:28:17;;;;;;;38.67;13.60;;;;;;;6.31;53.61;99416.09;4885463;29;20469;-86
2021/10/27 08:33:50;;;;;;;35.35;11.95;;;;;;;6.36;53.29;99423.69;4904513;29;20057;-83
2021/10/27 08:36:10;;;;;;;36.63;12.13;;;;;;;6.29;53.80;99424.09;4876224;29;20059;-83
2021/10/27 08:38:36;;;;;;;40.13;12.77;;;;;;;6.10;54.37;99429.63;4904257;29;20043;-84
2021/10/27 08:41:03;;;;;;;33.30;13.13;;;;;;;6.17;54.03;99414.34;4890267;29;20596;-84
2021/10/27 08:43:30;;;;;;;37.00;13.82;;;;;;;6.32;54.24;99413.38;4893606;29;20067;-83
2021/10/27 08:45:57;;;;;;;37.77;13.53;;;;;;;6.37;54.57;99413.09;4890214;29;20128;-83
2021/10/27 08:48:24;;;;;;;27.83;12.38;;;;;;;6.45;53.78;99412.59;4873239;29;20032;-82
2021/10/27 08:50:52;;;;;;;33.03;12.10;;;;;;;6.47;54.05;99408.09;4904126;29;20040;-83
2021/10/27 08:53:21;;;;;;;48.38;18.63;;;;;;;6.46;53.86;99414.28;4887001;29;20537;-83
2021/10/27 08:55:49;;;;;;;31.45;13.07;;;;;;;6.34;54.77;99409.81;4901887;29;20040;-82
2021/10/27 08:58:26;;;;;;;35.67;13.48;;;;;;;6.40;54.03;99410.25;4889880;29;20043;-83
2021/10/27 09:06:19;;;;;;;39.67;13.30;;;;;;;6.49;54.57;99408.81;4899647;29;20048;-82
2021/10/27 10:05:26;;;;;;;53.08;18.27;;;;;;;6.81;54.84;99387.47;4853687;29;20051;-81
2021/10/27 10:07:52;;;;;;;39.47;14.13;;;;;;;6.84;54.11;99392.56;4877636;29;20075;-79
2021/10/27 10:10:18;;;;;;;35.97;13.65;;;;;;;6.80;54.73;99385.78;4849447;29;20500;-81
2021/10/27 10:12:51;;;;;;;;;;;;;;;6.82;54.47;99389.16;4870097;28;20057;-82
2021/10/27 10:15:23;;;;;;;35.72;14.00;;;;;;;6.78;54.55;99377.19;4942992;28;19918;-85
2021/10/27 10:17:51;;;;;;;28.95;12.77;;;;;;;6.80;54.72;99380.53;4928277;28;20061;-84
2021/10/27 10:20:18;;;;;;;36.33;14.55;;;;;;;6.88;54.64;99373.00;4960215;28;20050;-86
2021/10/27 10:22:44;;;;;;;36.17;14.68;;;;;;;6.92;54.47;99379.72;4943906;28;20101;-83
2021/10/27 10:25:24;;;;;;;33.08;14.55;;;;;;;6.94;54.80;99376.97;4944151;28;20046;-81
2021/10/27 10:27:55;;;;;;;41.47;15.30;;;;;;;7.03;54.76;99370.25;4960289;28;20042;-84
2021/10/27 10:30:35;;;;;;;34.50;15.20;;;;;;;7.06;54.31;99375.34;4960151;28;20416;-81
2021/10/27 10:33:09;;;;;;;37.00;14.90;;;;;;;7.05;54.64;99377.13;4976978;28;20047;-83
2021/10/27 11:41:15;;;;;;;36.83;15.63;;;;;;;7.55;54.68;99393.03;4853710;29;20059;-85
2021/10/27 11:44:10;;;;;;;37.97;15.65;;;;;;;7.42;55.18;99384.28;4904706;29;20048;-84
2021/10/27 11:47:01;;;;;;;49.90;16.17;;;;;;;7.37;55.36;99381.97;4914876;28;20571;-85
2021/10/27 11:49:42;;;;;;;43.03;17.42;;;;;;;7.31;56.13;99389.44;4951532;28;20054;-85
2021/10/27 11:52:10;;;;;;;45.40;18.25;;;;;;;7.34;55.47;99389.22;4950480;28;20066;-81
2021/10/27 11:54:38;;;;;;;50.38;19.80;;;;;;;7.39;55.37;99392.38;4929851;29;20119;-83
2021/10/27 11:57:04;;;;;;;52.13;20.35;;;;;;;7.41;56.10;99391.34;4941970;29;20051;-86
2021/10/27 11:59:47;;;;;;;46.47;18.67;;;;;;;7.49;55.64;99385.56;4911200;29;20536;-86
2021/10/27 12:02:14;;;;;;;47.35;17.42;;;;;;;7.37;55.47;99378.50;4912675;29;20039;-80
2021/10/27 12:04:41;;;;;;;43.00;17.48;;;;;;;7.39;55.51;99376.59;4942579;29;20046;-81
2021/10/27 12:07:17;;;;;;;45.78;17.10;;;;;;;7.45;55.67;99386.69;4910997;29;20047;-84
2021/10/27 12:15:38;;;;;;;40.53;16.20;;;;;;;7.53;55.63;99394.91;4928281;29;20637;-83
2021/10/27 12:18:08;;;;;;;43.92;16.90;;;;;;;7.52;56.00;99395.03;4928080;29;20400;-80
2021/10/27 12:20:44;;;;;;;33.03;15.75;;;;;;;7.58;55.65;99398.06;4934644;29;20082;-79
2021/10/27 12:23:21;;;;;;;41.80;17.17;;;;;;;7.55;55.34;99392.19;4941827;29;20047;-81
2021/10/27 12:25:49;;;;;;;47.22;17.98;;;;;;;7.50;55.69;99392.50;4907295;29;20053;-83
2021/10/27 12:28:29;;;;;;;64.63;26.52;;;;;;;7.57;56.24;99393.75;4899771;29;20044;-78
2021/10/27 12:31:28;;;;;;;36.90;15.05;;;;;;;7.70;55.50;99398.16;4916525;29;20059;-81
2021/10/27 12:33:59;;;;;;;39.45;15.43;;;;;;;7.55;55.82;99408.81;4916436;29;20063;-79
2021/10/27 12:36:45;;;;;;;43.50;16.30;;;;;;;7.48;56.04;99407.56;4833936;29;20062;-83
2021/10/27 12:39:30;;;;;;;33.20;14.18;;;;;;;7.38;56.95;99401.25;4803512;29;20046;-83
2021/10/27 12:42:07;;;;;;;37.58;14.85;;;;;;;7.51;56.16;99407.34;4815372;29;20054;-84
2021/10/27 12:44:43;;;;;;;35.58;15.90;;;;;;;7.58;55.68;99411.22;4816642;29;20189;-83
2021/10/27 12:47:28;;;;;;;34.35;14.68;;;;;;;7.58;56.40;99413.88;4815395;29;20050;-84
2021/10/27 12:50:13;;;;;;;39.40;15.32;;;;;;;7.56;56.40;99407.03;4816989;29;20087;-84
2021/10/27 12:53:06;;;;;;;39.90;15.13;;;;;;;7.58;55.97;99424.38;4799867;29;20053;-82
2021/10/27 12:55:34;;;;;;;35.20;14.05;;;;;;;7.67;56.24;99422.09;4784192;29;20121;-82
2021/10/27 12:58:06;;;;;;;32.47;14.25;;;;;;;7.58;56.03;99424.38;4844154;29;20053;-83
2021/10/27 13:30:47;;;;;;;46.90;18.25;;;;;;;7.33;58.40;99480.47;4828962;29;20089;-84
2021/10/27 13:33:15;;;;;;;38.78;14.50;;;;;;;7.27;58.29;99488.78;4828865;29;20105;-86
2021/10/27 13:35:41;;;;;;;33.80;13.63;;;;;;;7.21;58.02;99479.50;4829482;29;20069;-85
2021/10/27 13:38:09;;;;;;;32.35;14.68;;;;;;;7.28;58.27;99483.41;4815598;29;20547;-85
2021/10/27 13:40:39;;;;;;;34.72;14.55;;;;;;;7.24;58.31;99484.56;4901745;29;20048;-88
2021/10/27 13:59:18;;;;;;;31.05;13.32;;;;;;;7.05;59.20;99486.72;4905523;29;20509;-84
2021/10/27 14:12:24;;;;;;;29.00;12.68;;;;;;;6.91;60.95;99491.06;4977873;28;20078;-82
2021/10/27 14:15:40;;;;;;;33.25;13.73;;;;;;;6.83;61.12;99501.25;4930541;28;20046;-84
2021/10/27 14:19:18;;;;;;;42.28;15.88;;;;;;;6.76;61.55;99497.34;4965206;28;20097;-83
2021/10/27 14:40:28;;;;;;;31.98;13.88;;;;;;;6.41;63.64;99506.50;4947191;28;20070;-83
2021/10/27 15:21:37;;;;;;;35.20;15.23;;;;;;;6.76;63.56;99531.50;4926248;29;20493;-82
2021/10/27 15:24:16;;;;;;;36.17;14.75;;;;;;;6.65;63.11;99519.03;4910963;29;20103;-83
2021/10/27 15:29:48;;;;;;;39.20;15.98;;;;;;;6.56;63.43;99533.59;4910093;29;20048;-85
2021/10/27 15:51:05;;;;;;;37.35;13.02;;;;;;;6.58;62.84;99549.25;4865156;29;20124;-84
2021/10/27 15:53:31;;;;;;;34.60;13.20;;;;;;;6.53;63.45;99552.19;4867604;29;20052;-86
2021/10/27 15:56:00;;;;;;;40.15;14.27;;;;;;;6.59;63.29;99548.31;4863517;29;20048;-83
2021/10/27 15:58:26;;;;;;;40.45;15.57;;;;;;;6.62;63.10;99546.34;4858416;29;20115;-84
2021/10/27 16:00:52;;;;;;;44.00;15.65;;;;;;;6.60;63.74;99555.28;4871953;29;20045;-86
2021/10/27 16:03:18;;;;;;;43.03;16.23;;;;;;;6.51;64.00;99550.59;4909499;29;20139;-84
2021/10/27 16:05:47;;;;;;;34.55;16.02;;;;;;;6.55;63.62;99539.78;4904667;29;20071;-84
2021/10/27 16:08:17;;;;;;;45.15;15.50;;;;;;;6.57;63.88;99532.66;4909768;29;20436;-84
2021/10/27 16:10:46;;;;;;;33.63;13.48;;;;;;;6.66;63.78;99540.91;4901220;29;20066;-84
2021/10/27 16:13:12;;;;;;;217.48;76.10;;;;;;;6.62;64.48;99535.84;4880367;29;20068;-86
2021/10/27 16:18:19;;;;;;;29.83;12.02;;;;;;;6.68;64.62;99533.75;4958239;28;20424;-84
2021/10/27 16:20:45;;;;;;;30.70;12.60;;;;;;;6.69;63.70;99544.19;4945870;28;20046;-88
2021/10/27 16:23:15;;;;;;;32.63;12.98;;;;;;;6.60;64.72;99527.22;4940675;28;20045;-85
2021/10/27 16:25:43;;;;;;;32.65;13.93;;;;;;;6.56;64.92;99541.47;4939152;28;20039;-84
2021/10/27 16:28:11;;;;;;;38.38;13.73;;;;;;;6.59;64.85;99540.44;4953749;28;20078;-85
2021/10/27 16:30:39;;;;;;;29.30;13.05;;;;;;;6.55;64.99;99534.53;4920799;28;20050;-86
2021/10/27 16:33:05;;;;;;;;;;;;;;;6.67;65.16;99539.97;4916645;29;20047;-84
2021/10/27 16:35:34;;;;;;;44.33;17.83;;;;;;;6.52;65.04;99540.00;4900666;29;19926;-84
2021/10/27 16:38:02;;;;;;;32.58;13.82;;;;;;;6.56;65.60;99546.75;4898522;29;20043;-84
2021/10/27 16:40:40;;;;;;;40.60;15.53;;;;;;;6.56;65.39;99541.47;4916851;29;20046;-86
2021/10/27 16:43:10;;;;;;;34.25;13.90;;;;;;;6.63;65.23;99547.22;4919718;29;20290;-85